Impacts METAR Board
IDs:

KMEM - Memphis Intl, TN, US

Updated at: 1200 UTC 27 Feb 2021
Potential Impact None Slight Moderate High
Time 27/00Z 27/01Z 27/02Z 27/03Z 27/04Z 27/05Z 27/06Z 27/07Z 27/08Z 27/09Z 27/10Z 27/11Z 27/12Z
Temp57 57 57 57 58 59 59 58 57 56 53 52 51
Dewpt55 55 56 56 57 58 57 57 56 54 52 50 48
Altim29.89 29.89 29.89 29.90 29.92 29.94 29.95 29.96 29.97 29.99 30.01 30.04 30.05
VIS7 6 4 6 6 6 6 6 7 7 4 8 8
CIG7 7 15 15 22 8 8 8 8 6 8 33 37
CoverOVCOVCOVCOVCOVCOVCOVCOVCOVCOVCOVCOVCOVC
FltCatIFRIFRMVFRMVFRMVFRIFRIFRIFRIFRIFRIFRVFRVFR
WX---RA BR-RA BRBR-RA BR-RA BR-RA BR-RA BR-RA-RA-RA BR----
WDir170150170190210200230240230280310280320
WSpd6 5 7 6 7 7 9 6 5 7 6 7 4
WGst-- -- -- -- -- -- -- -- -- -- -- -- --
Raw hourly METARs
KMEM 262354Z 17006KT 7SM OVC007 14/13 A2989 RMK AO2 RAB2256E39 CIG 006V010 SLP122 P0003 60009 T01390128 10150 20139 56016 $
KMEM 270054Z 15005KT 6SM -RA BR BKN007 OVC014 14/13 A2989 RMK AO2 RAB2359 SLP122 P0002 T01390128 $
KMEM 270154Z 17007KT 4SM -RA BR FEW005 BKN015 OVC029 14/13 A2989 RMK AO2 SLP122 P0023 T01390133 $
KMEM 270305Z 19006KT 6SM BR FEW007 BKN015 OVC020 14/13 A2990 RMK AO2 RAE05 P0000 T01390133 $
KMEM 270354Z 21007KT 6SM -RA BR SCT008 OVC022 14/14 A2992 RMK AO2 RAE05B09 SLP129 P0013 T01440139 $
KMEM 270454Z 20007KT 180V240 6SM -RA BR BKN008 BKN022 OVC027 15/14 A2994 RMK AO2 SLP136 P0019 T01500144 $
KMEM 270554Z 23009KT 180V260 6SM -RA BR BKN008 OVC013 15/14 A2995 RMK AO2 SLP139 P0010 60084 T01500139 10156 20139 401560061 51014 $
KMEM 270654Z 24006KT 6SM -RA BR BKN008 OVC021 14/14 A2996 RMK AO2 CIG 005V011 SLP145 P0005 T01440139 $
KMEM 270754Z 23005KT 7SM -RA BKN008 BKN022 OVC030 14/13 A2997 RMK AO2 SLP147 P0005 T01390133 $
KMEM 270854Z 28007KT 7SM -RA BKN006 OVC035 13/12 A2999 RMK AO2 SLP154 P0010 60020 T01330122 53015 $
KMEM 270954Z 31006KT 4SM -RA BR SCT005 BKN008 OVC017 12/11 A3001 RMK AO2 CIG 006V012 SLP161 P0003 T01170111 $
KMEM 271054Z 28007KT 8SM FEW006 OVC033 11/10 A3004 RMK AO2 RAE0959 PRESRR SLP173 P0000 T01110100 $
KMEM 271154Z 32004KT 8SM FEW007 BKN037 OVC090 11/09 A3005 RMK AO2 RAB1058E34 SLP175 P0000 60023 70149 T01060089 10150 20106 51021 $



Page loaded:  12:35 UTC  |   04:35 AM Pacific  |   05:35 AM Mountain  |   06:35 AM Central  |   07:35 AM Eastern

 

ADVISORIES

FORECASTS

FORECASTS

OBSERVATIONS

USER TOOLS

ABOUT US